sensor_id;sensor_type;location;lat;lon;timestamp;temperature;humidity
1602;DHT22;794;48.592;9.634;2022-09-09T00:00:41;11.30;1.00
1602;DHT22;794;48.592;9.634;2022-09-09T00:03:17;11.40;1.00
1602;DHT22;794;48.592;9.634;2022-09-09T00:05:54;11.50;1.00
1602;DHT22;794;48.592;9.634;2022-09-09T00:08:30;11.60;1.00
1602;DHT22;794;48.592;9.634;2022-09-09T00:11:01;11.30;1.00
1602;DHT22;794;48.592;9.634;2022-09-09T00:13:36;11.40;1.00
1602;DHT22;794;48.592;9.634;2022-09-09T00:16:09;11.20;1.00
1602;DHT22;794;48.592;9.634;2022-09-09T00:18:51;11.50;1.00
1602;DHT22;794;48.592;9.634;2022-09-09T00:21:23;11.60;1.00
1602;DHT22;794;48.592;9.634;2022-09-09T00:23:53;11.50;1.00
1602;DHT22;794;48.592;9.634;2022-09-09T00:26:25;11.40;1.00
1602;DHT22;794;48.592;9.634;2022-09-09T00:29:03;11.30;1.00
1602;DHT22;794;48.592;9.634;2022-09-09T00:31:32;11.40;1.00
1602;DHT22;794;48.592;9.634;2022-09-09T00:34:05;11.40;1.00
1602;DHT22;794;48.592;9.634;2022-09-09T00:36:45;11.30;1.00
1602;DHT22;794;48.592;9.634;2022-09-09T00:39:19;11.30;1.00
1602;DHT22;794;48.592;9.634;2022-09-09T00:41:57;11.40;1.00
1602;DHT22;794;48.592;9.634;2022-09-09T00:44:32;11.30;1.00
1602;DHT22;794;48.592;9.634;2022-09-09T00:47:26;11.20;1.00
1602;DHT22;794;48.592;9.634;2022-09-09T00:50:09;11.40;1.00
1602;DHT22;794;48.592;9.634;2022-09-09T00:52:46;11.40;1.00
1602;DHT22;794;48.592;9.634;2022-09-09T00:55:23;11.40;1.00
1602;DHT22;794;48.592;9.634;2022-09-09T00:57:52;11.50;1.00
1602;DHT22;794;48.592;9.634;2022-09-09T01:00:22;11.40;1.00
1602;DHT22;794;48.592;9.634;2022-09-09T01:03:02;11.60;1.00
1602;DHT22;794;48.592;9.634;2022-09-09T01:05:41;11.50;1.00
1602;DHT22;794;48.592;9.634;2022-09-09T01:08:29;11.40;1.00
1602;DHT22;794;48.592;9.634;2022-09-09T01:11:00;11.60;1.00
1602;DHT22;794;48.592;9.634;2022-09-09T01:13:34;11.50;1.00
1602;DHT22;794;48.592;9.634;2022-09-09T01:16:09;10.70;1.00
1602;DHT22;794;48.592;9.634;2022-09-09T01:18:40;11.30;1.00
1602;DHT22;794;48.592;9.634;2022-09-09T01:21:20;11.80;1.00
1602;DHT22;794;48.592;9.634;2022-09-09T01:24:16;11.60;1.00
1602;DHT22;794;48.592;9.634;2022-09-09T01:26:49;11.30;1.00
1602;DHT22;794;48.592;9.634;2022-09-09T01:29:19;11.40;1.00
1602;DHT22;794;48.592;9.634;2022-09-09T01:31:53;11.50;1.00
1602;DHT22;794;48.592;9.634;2022-09-09T01:39:52;11.60;1.00
1602;DHT22;794;48.592;9.634;2022-09-09T01:42:23;11.40;1.00
1602;DHT22;794;48.592;9.634;2022-09-09T01:44:50;14.90;1.00
1602;DHT22;794;48.592;9.634;2022-09-09T01:49:59;11.40;1.00
1602;DHT22;794;48.592;9.634;2022-09-09T01:52:28;11.30;1.00
1602;DHT22;794;48.592;9.634;2022-09-09T01:57:30;11.30;1.00
1602;DHT22;794;48.592;9.634;2022-09-09T02:00:03;11.30;1.00
1602;DHT22;794;48.592;9.634;2022-09-09T02:02:36;11.10;1.00
1602;DHT22;794;48.592;9.634;2022-09-09T02:05:13;11.10;1.00
1602;DHT22;794;48.592;9.634;2022-09-09T02:07:47;11.50;1.00
1602;DHT22;794;48.592;9.634;2022-09-09T02:10:19;11.10;1.00
1602;DHT22;794;48.592;9.634;2022-09-09T02:12:55;11.20;1.00
1602;DHT22;794;48.592;9.634;2022-09-09T02:15:28;11.30;1.00
1602;DHT22;794;48.592;9.634;2022-09-09T02:17:57;11.30;1.00
1602;DHT22;794;48.592;9.634;2022-09-09T02:20:26;11.20;1.00
1602;DHT22;794;48.592;9.634;2022-09-09T02:22:58;10.70;1.00
1602;DHT22;794;48.592;9.634;2022-09-09T02:25:28;11.10;1.00
1602;DHT22;794;48.592;9.634;2022-09-09T02:27:58;11.10;1.00
1602;DHT22;794;48.592;9.634;2022-09-09T02:30:27;11.10;1.00
1602;DHT22;794;48.592;9.634;2022-09-09T02:32:57;11.40;1.00
1602;DHT22;794;48.592;9.634;2022-09-09T02:35:26;11.30;1.00
1602;DHT22;794;48.592;9.634;2022-09-09T02:38:02;11.40;1.00
1602;DHT22;794;48.592;9.634;2022-09-09T02:45:34;11.20;1.00
1602;DHT22;794;48.592;9.634;2022-09-09T02:48:09;11.20;1.00
1602;DHT22;794;48.592;9.634;2022-09-09T02:50:45;11.30;1.00
1602;DHT22;794;48.592;9.634;2022-09-09T02:53:24;11.60;1.00
1602;DHT22;794;48.592;9.634;2022-09-09T02:55:56;11.60;1.00
1602;DHT22;794;48.592;9.634;2022-09-09T02:58:26;11.70;1.00
1602;DHT22;794;48.592;9.634;2022-09-09T03:00:56;11.60;1.00
1602;DHT22;794;48.592;9.634;2022-09-09T03:03:27;12.40;1.00
1602;DHT22;794;48.592;9.634;2022-09-09T03:15:53;11.90;1.00
1602;DHT22;794;48.592;9.634;2022-09-09T03:18:27;11.80;1.00
1602;DHT22;794;48.592;9.634;2022-09-09T03:30:59;12.30;1.00
1602;DHT22;794;48.592;9.634;2022-09-09T03:40:50;12.20;1.00
1602;DHT22;794;48.592;9.634;2022-09-09T03:43:23;12.20;1.00
1602;DHT22;794;48.592;9.634;2022-09-09T03:48:19;12.40;1.00
1602;DHT22;794;48.592;9.634;2022-09-09T03:53:15;12.60;1.00
1602;DHT22;794;48.592;9.634;2022-09-09T03:55:58;12.50;1.00
1602;DHT22;794;48.592;9.634;2022-09-09T04:01:04;12.80;1.00
1602;DHT22;794;48.592;9.634;2022-09-09T04:03:32;12.80;1.00
1602;DHT22;794;48.592;9.634;2022-09-09T04:06:00;12.80;1.00
1602;DHT22;794;48.592;9.634;2022-09-09T04:11:05;12.60;1.00
1602;DHT22;794;48.592;9.634;2022-09-09T04:13:43;13.00;1.00
1602;DHT22;794;48.592;9.634;2022-09-09T04:18:42;12.80;1.00
1602;DHT22;794;48.592;9.634;2022-09-09T04:21:11;13.00;1.00
1602;DHT22;794;48.592;9.634;2022-09-09T04:26:06;13.00;1.00
1602;DHT22;794;48.592;9.634;2022-09-09T04:28:36;13.00;1.00
1602;DHT22;794;48.592;9.634;2022-09-09T04:31:08;13.00;1.00
1602;DHT22;794;48.592;9.634;2022-09-09T04:33:47;12.80;1.00
1602;DHT22;794;48.592;9.634;2022-09-09T04:48:52;12.90;1.00
1602;DHT22;794;48.592;9.634;2022-09-09T04:56:16;13.00;1.00
1602;DHT22;794;48.592;9.634;2022-09-09T05:01:12;13.00;1.00
1602;DHT22;794;48.592;9.634;2022-09-09T05:03:43;13.40;1.00
1602;DHT22;794;48.592;9.634;2022-09-09T05:06:16;13.00;1.00
1602;DHT22;794;48.592;9.634;2022-09-09T05:08:45;13.00;1.00
1602;DHT22;794;48.592;9.634;2022-09-09T05:21:07;12.90;1.00
1602;DHT22;794;48.592;9.634;2022-09-09T05:23:38;13.10;1.00
1602;DHT22;794;48.592;9.634;2022-09-09T05:26:07;13.00;1.00
1602;DHT22;794;48.592;9.634;2022-09-09T05:28:36;13.10;1.00
1602;DHT22;794;48.592;9.634;2022-09-09T05:31:10;13.20;1.00
1602;DHT22;794;48.592;9.634;2022-09-09T05:33:42;13.10;1.00
1602;DHT22;794;48.592;9.634;2022-09-09T05:36:13;13.20;1.00
1602;DHT22;794;48.592;9.634;2022-09-09T05:38:43;13.20;1.00
1602;DHT22;794;48.592;9.634;2022-09-09T05:41:13;13.30;1.00
1602;DHT22;794;48.592;9.634;2022-09-09T05:46:11;13.50;1.00
1602;DHT22;794;48.592;9.634;2022-09-09T05:48:41;13.50;1.00
1602;DHT22;794;48.592;9.634;2022-09-09T05:51:12;13.70;1.00
1602;DHT22;794;48.592;9.634;2022-09-09T05:53:45;13.90;1.00
1602;DHT22;794;48.592;9.634;2022-09-09T05:56:14;14.20;1.00
1602;DHT22;794;48.592;9.634;2022-09-09T05:58:41;14.40;1.00
1602;DHT22;794;48.592;9.634;2022-09-09T06:01:11;14.60;1.00
1602;DHT22;794;48.592;9.634;2022-09-09T06:03:40;14.60;1.00
1602;DHT22;794;48.592;9.634;2022-09-09T06:06:09;15.20;1.00
1602;DHT22;794;48.592;9.634;2022-09-09T06:08:40;15.00;1.00
1602;DHT22;794;48.592;9.634;2022-09-09T06:11:15;15.00;1.00
1602;DHT22;794;48.592;9.634;2022-09-09T06:16:17;15.00;1.00
1602;DHT22;794;48.592;9.634;2022-09-09T06:21:16;15.30;1.00
1602;DHT22;794;48.592;9.634;2022-09-09T06:26:17;16.20;1.00
1602;DHT22;794;48.592;9.634;2022-09-09T06:28:47;15.80;1.00
1602;DHT22;794;48.592;9.634;2022-09-09T06:31:16;16.00;1.00
1602;DHT22;794;48.592;9.634;2022-09-09T06:33:52;16.20;1.00
1602;DHT22;794;48.592;9.634;2022-09-09T06:36:22;16.70;1.00
1602;DHT22;794;48.592;9.634;2022-09-09T06:41:24;16.80;1.00
1602;DHT22;794;48.592;9.634;2022-09-09T06:46:21;17.70;1.00
1602;DHT22;794;48.592;9.634;2022-09-09T06:48:48;17.60;1.00
1602;DHT22;794;48.592;9.634;2022-09-09T06:51:17;18.10;1.00
1602;DHT22;794;48.592;9.634;2022-09-09T06:53:47;18.20;1.00
1602;DHT22;794;48.592;9.634;2022-09-09T06:56:21;18.20;1.00
1602;DHT22;794;48.592;9.634;2022-09-09T06:58:54;18.80;1.00
1602;DHT22;794;48.592;9.634;2022-09-09T07:01:23;18.50;1.00
1602;DHT22;794;48.592;9.634;2022-09-09T07:03:53;18.60;1.00
1602;DHT22;794;48.592;9.634;2022-09-09T07:06:22;18.50;1.00
1602;DHT22;794;48.592;9.634;2022-09-09T07:08:53;18.90;1.00
1602;DHT22;794;48.592;9.634;2022-09-09T07:11:27;19.10;1.00
1602;DHT22;794;48.592;9.634;2022-09-09T07:14:00;18.80;1.00
1602;DHT22;794;48.592;9.634;2022-09-09T07:16:39;18.70;1.00
1602;DHT22;794;48.592;9.634;2022-09-09T07:24:06;19.40;1.00
1602;DHT22;794;48.592;9.634;2022-09-09T07:26:37;20.00;1.00
1602;DHT22;794;48.592;9.634;2022-09-09T07:29:05;20.00;1.00
1602;DHT22;794;48.592;9.634;2022-09-09T07:31:34;20.50;1.00
1602;DHT22;794;48.592;9.634;2022-09-09T07:34:02;21.30;1.00
1602;DHT22;794;48.592;9.634;2022-09-09T07:36:31;20.70;1.00
1602;DHT22;794;48.592;9.634;2022-09-09T07:39:00;20.80;1.00
1602;DHT22;794;48.592;9.634;2022-09-09T07:41:34;20.80;1.00
1602;DHT22;794;48.592;9.634;2022-09-09T07:44:11;20.40;1.00
1602;DHT22;794;48.592;9.634;2022-09-09T07:49:11;20.30;1.00
1602;DHT22;794;48.592;9.634;2022-09-09T07:51:45;20.50;1.00
1602;DHT22;794;48.592;9.634;2022-09-09T07:54:14;20.60;1.00
1602;DHT22;794;48.592;9.634;2022-09-09T07:57:02;20.80;1.00
1602;DHT22;794;48.592;9.634;2022-09-09T07:59:31;20.80;1.00
1602;DHT22;794;48.592;9.634;2022-09-09T08:04:30;21.20;1.00
1602;DHT22;794;48.592;9.634;2022-09-09T08:07:01;21.60;1.00
1602;DHT22;794;48.592;9.634;2022-09-09T08:09:33;22.20;1.00
1602;DHT22;794;48.592;9.634;2022-09-09T08:14:33;22.20;1.00
1602;DHT22;794;48.592;9.634;2022-09-09T08:19:30;22.80;1.00
1602;DHT22;794;48.592;9.634;2022-09-09T08:24:28;23.80;1.00
1602;DHT22;794;48.592;9.634;2022-09-09T08:26:55;27.90;1.00
1602;DHT22;794;48.592;9.634;2022-09-09T08:31:52;31.90;1.00
1602;DHT22;794;48.592;9.634;2022-09-09T08:34:21;29.60;1.00
1602;DHT22;794;48.592;9.634;2022-09-09T08:36:51;29.70;1.00
1602;DHT22;794;48.592;9.634;2022-09-09T08:39:19;28.80;1.00
1602;DHT22;794;48.592;9.634;2022-09-09T08:42:10;27.40;1.00
1602;DHT22;794;48.592;9.634;2022-09-09T08:44:49;26.40;1.00
1602;DHT22;794;48.592;9.634;2022-09-09T08:47:26;25.10;1.00
1602;DHT22;794;48.592;9.634;2022-09-09T08:50:06;24.30;1.00
1602;DHT22;794;48.592;9.634;2022-09-09T08:52:41;23.50;1.00
1602;DHT22;794;48.592;9.634;2022-09-09T08:55:22;22.70;1.00
1602;DHT22;794;48.592;9.634;2022-09-09T08:57:54;22.70;1.00
1602;DHT22;794;48.592;9.634;2022-09-09T09:00:47;22.80;1.00
1602;DHT22;794;48.592;9.634;2022-09-09T09:03:26;22.70;1.00
1602;DHT22;794;48.592;9.634;2022-09-09T09:06:01;22.70;1.00
1602;DHT22;794;48.592;9.634;2022-09-09T09:08:38;22.20;1.00
1602;DHT22;794;48.592;9.634;2022-09-09T09:13:40;21.70;1.00
1602;DHT22;794;48.592;9.634;2022-09-09T09:16:18;21.60;1.00
1602;DHT22;794;48.592;9.634;2022-09-09T09:18:47;21.60;1.00
1602;DHT22;794;48.592;9.634;2022-09-09T09:21:17;23.00;1.00
1602;DHT22;794;48.592;9.634;2022-09-09T09:23:53;24.70;1.00
1602;DHT22;794;48.592;9.634;2022-09-09T09:26:23;24.80;1.00
1602;DHT22;794;48.592;9.634;2022-09-09T09:28:57;26.00;1.00
1602;DHT22;794;48.592;9.634;2022-09-09T09:31:26;24.80;1.00
1602;DHT22;794;48.592;9.634;2022-09-09T09:33:56;24.60;1.00
1602;DHT22;794;48.592;9.634;2022-09-09T09:36:25;24.70;1.00
1602;DHT22;794;48.592;9.634;2022-09-09T09:39:00;25.30;1.00
1602;DHT22;794;48.592;9.634;2022-09-09T09:41:32;25.30;1.00
1602;DHT22;794;48.592;9.634;2022-09-09T09:44:01;25.40;1.00
1602;DHT22;794;48.592;9.634;2022-09-09T09:46:32;25.50;1.00
1602;DHT22;794;48.592;9.634;2022-09-09T09:49:02;25.30;1.00
1602;DHT22;794;48.592;9.634;2022-09-09T09:51:32;24.90;1.00
1602;DHT22;794;48.592;9.634;2022-09-09T09:54:14;24.90;1.00
1602;DHT22;794;48.592;9.634;2022-09-09T09:59:33;23.50;1.00
1602;DHT22;794;48.592;9.634;2022-09-09T10:02:18;23.50;1.00
1602;DHT22;794;48.592;9.634;2022-09-09T10:04:47;23.10;1.00
1602;DHT22;794;48.592;9.634;2022-09-09T10:07:18;23.10;1.00
1602;DHT22;794;48.592;9.634;2022-09-09T10:12:22;22.90;1.00
1602;DHT22;794;48.592;9.634;2022-09-09T10:14:59;22.90;1.00
1602;DHT22;794;48.592;9.634;2022-09-09T10:17:36;22.60;1.00
1602;DHT22;794;48.592;9.634;2022-09-09T10:20:21;23.10;1.00
1602;DHT22;794;48.592;9.634;2022-09-09T10:22:51;23.50;1.00
1602;DHT22;794;48.592;9.634;2022-09-09T10:25:48;23.90;1.00
1602;DHT22;794;48.592;9.634;2022-09-09T10:28:46;24.40;1.00
1602;DHT22;794;48.592;9.634;2022-09-09T10:31:28;24.80;1.00
1602;DHT22;794;48.592;9.634;2022-09-09T10:34:05;25.30;1.00
1602;DHT22;794;48.592;9.634;2022-09-09T10:36:42;25.20;1.00
1602;DHT22;794;48.592;9.634;2022-09-09T10:39:18;25.40;1.00
1602;DHT22;794;48.592;9.634;2022-09-09T10:41:55;25.20;1.00
1602;DHT22;794;48.592;9.634;2022-09-09T10:44:48;25.10;1.00
1602;DHT22;794;48.592;9.634;2022-09-09T10:47:38;25.10;1.00
1602;DHT22;794;48.592;9.634;2022-09-09T10:50:23;24.50;1.00
1602;DHT22;794;48.592;9.634;2022-09-09T10:53:01;23.40;1.00
1602;DHT22;794;48.592;9.634;2022-09-09T10:55:37;24.00;1.00
1602;DHT22;794;48.592;9.634;2022-09-09T10:58:16;22.80;1.00
1602;DHT22;794;48.592;9.634;2022-09-09T11:00:47;22.60;1.00
1602;DHT22;794;48.592;9.634;2022-09-09T11:03:19;22.40;1.00
1602;DHT22;794;48.592;9.634;2022-09-09T11:05:53;22.30;1.00
1602;DHT22;794;48.592;9.634;2022-09-09T11:08:25;22.50;1.00
1602;DHT22;794;48.592;9.634;2022-09-09T11:10:57;22.50;1.00
1602;DHT22;794;48.592;9.634;2022-09-09T11:13:31;22.30;1.00
1602;DHT22;794;48.592;9.634;2022-09-09T11:16:15;22.30;1.00
1602;DHT22;794;48.592;9.634;2022-09-09T11:18:44;22.60;1.00
1602;DHT22;794;48.592;9.634;2022-09-09T11:21:22;23.10;1.00
1602;DHT22;794;48.592;9.634;2022-09-09T11:23:54;23.10;1.00
1602;DHT22;794;48.592;9.634;2022-09-09T11:26:30;22.80;1.00
1602;DHT22;794;48.592;9.634;2022-09-09T11:32:04;23.00;1.00
1602;DHT22;794;48.592;9.634;2022-09-09T11:34:42;23.10;1.00
1602;DHT22;794;48.592;9.634;2022-09-09T11:37:25;23.10;1.00
1602;DHT22;794;48.592;9.634;2022-09-09T11:40:09;23.40;1.00
1602;DHT22;794;48.592;9.634;2022-09-09T11:42:43;23.20;1.00
1602;DHT22;794;48.592;9.634;2022-09-09T11:45:15;23.20;1.00
1602;DHT22;794;48.592;9.634;2022-09-09T11:47:54;23.00;1.00
1602;DHT22;794;48.592;9.634;2022-09-09T11:50:30;23.00;1.00
1602;DHT22;794;48.592;9.634;2022-09-09T11:53:17;22.80;1.00
1602;DHT22;794;48.592;9.634;2022-09-09T11:55:48;21.20;1.00
1602;DHT22;794;48.592;9.634;2022-09-09T11:58:27;22.70;1.00
1602;DHT22;794;48.592;9.634;2022-09-09T12:00:59;22.70;1.00
1602;DHT22;794;48.592;9.634;2022-09-09T12:03:39;22.60;1.00
1602;DHT22;794;48.592;9.634;2022-09-09T12:06:11;22.40;1.00
1602;DHT22;794;48.592;9.634;2022-09-09T12:08:42;22.50;1.00
1602;DHT22;794;48.592;9.634;2022-09-09T12:11:11;22.60;1.00
1602;DHT22;794;48.592;9.634;2022-09-09T12:13:39;22.80;1.00
1602;DHT22;794;48.592;9.634;2022-09-09T12:16:28;22.60;1.00
1602;DHT22;794;48.592;9.634;2022-09-09T12:19:04;22.60;1.00
1602;DHT22;794;48.592;9.634;2022-09-09T12:21:35;22.10;1.00
1602;DHT22;794;48.592;9.634;2022-09-09T12:24:08;21.70;1.00
1602;DHT22;794;48.592;9.634;2022-09-09T12:26:42;21.70;1.00
1602;DHT22;794;48.592;9.634;2022-09-09T12:29:21;21.50;1.00
1602;DHT22;794;48.592;9.634;2022-09-09T12:31:56;21.40;1.00
1602;DHT22;794;48.592;9.634;2022-09-09T12:34:35;21.10;1.00
1602;DHT22;794;48.592;9.634;2022-09-09T12:37:06;21.10;1.00
1602;DHT22;794;48.592;9.634;2022-09-09T12:39:42;21.00;1.00
1602;DHT22;794;48.592;9.634;2022-09-09T12:42:19;21.10;1.00
1602;DHT22;794;48.592;9.634;2022-09-09T12:44:54;21.00;1.00
1602;DHT22;794;48.592;9.634;2022-09-09T12:47:23;20.90;1.00
1602;DHT22;794;48.592;9.634;2022-09-09T12:49:55;20.70;1.00
1602;DHT22;794;48.592;9.634;2022-09-09T12:52:27;20.70;1.00
1602;DHT22;794;48.592;9.634;2022-09-09T12:55:00;20.80;1.00
1602;DHT22;794;48.592;9.634;2022-09-09T12:57:35;20.50;1.00
1602;DHT22;794;48.592;9.634;2022-09-09T13:00:12;20.40;1.00
1602;DHT22;794;48.592;9.634;2022-09-09T13:02:49;20.40;1.00
1602;DHT22;794;48.592;9.634;2022-09-09T13:05:20;20.60;1.00
1602;DHT22;794;48.592;9.634;2022-09-09T13:07:47;20.60;1.00
1602;DHT22;794;48.592;9.634;2022-09-09T13:10:22;20.60;1.00
1602;DHT22;794;48.592;9.634;2022-09-09T13:12:51;20.60;1.00
1602;DHT22;794;48.592;9.634;2022-09-09T13:15:21;20.70;1.00
1602;DHT22;794;48.592;9.634;2022-09-09T13:17:52;20.70;1.00
1602;DHT22;794;48.592;9.634;2022-09-09T13:20:20;20.70;1.00
1602;DHT22;794;48.592;9.634;2022-09-09T13:22:48;20.70;1.00
1602;DHT22;794;48.592;9.634;2022-09-09T13:25:21;20.70;1.00
1602;DHT22;794;48.592;9.634;2022-09-09T13:28:04;20.50;1.00
1602;DHT22;794;48.592;9.634;2022-09-09T13:30:32;20.60;1.00
1602;DHT22;794;48.592;9.634;2022-09-09T13:33:20;20.70;1.00
1602;DHT22;794;48.592;9.634;2022-09-09T13:35:49;20.80;1.00
1602;DHT22;794;48.592;9.634;2022-09-09T13:38:19;20.90;1.00
1602;DHT22;794;48.592;9.634;2022-09-09T13:40:55;20.80;1.00
1602;DHT22;794;48.592;9.634;2022-09-09T13:43:25;20.70;1.00
1602;DHT22;794;48.592;9.634;2022-09-09T13:45:54;20.60;1.00
1602;DHT22;794;48.592;9.634;2022-09-09T13:48:22;20.90;1.00
1602;DHT22;794;48.592;9.634;2022-09-09T13:50:57;21.10;1.00
1602;DHT22;794;48.592;9.634;2022-09-09T13:55:51;21.50;1.00
1602;DHT22;794;48.592;9.634;2022-09-09T13:58:19;21.60;1.00
1602;DHT22;794;48.592;9.634;2022-09-09T14:00:48;21.40;1.00
1602;DHT22;794;48.592;9.634;2022-09-09T14:03:16;21.50;1.00
1602;DHT22;794;48.592;9.634;2022-09-09T14:05:44;21.20;1.00
1602;DHT22;794;48.592;9.634;2022-09-09T14:08:21;21.10;1.00
1602;DHT22;794;48.592;9.634;2022-09-09T14:15:43;21.00;1.00
1602;DHT22;794;48.592;9.634;2022-09-09T14:18:13;20.90;1.00
1602;DHT22;794;48.592;9.634;2022-09-09T14:23:10;20.90;1.00
1602;DHT22;794;48.592;9.634;2022-09-09T14:25:42;21.00;1.00
1602;DHT22;794;48.592;9.634;2022-09-09T14:28:13;21.00;1.00
1602;DHT22;794;48.592;9.634;2022-09-09T14:30:41;21.00;1.00
1602;DHT22;794;48.592;9.634;2022-09-09T14:33:23;20.90;1.00
1602;DHT22;794;48.592;9.634;2022-09-09T14:35:55;20.70;1.00
1602;DHT22;794;48.592;9.634;2022-09-09T14:40:49;20.40;1.00
1602;DHT22;794;48.592;9.634;2022-09-09T14:43:18;20.40;1.00
1602;DHT22;794;48.592;9.634;2022-09-09T14:50:46;20.60;1.00
1602;DHT22;794;48.592;9.634;2022-09-09T14:55:42;20.90;1.00
1602;DHT22;794;48.592;9.634;2022-09-09T15:00:38;20.90;1.00
1602;DHT22;794;48.592;9.634;2022-09-09T15:03:07;20.90;1.00
1602;DHT22;794;48.592;9.634;2022-09-09T15:05:36;20.80;1.00
1602;DHT22;794;48.592;9.634;2022-09-09T15:08:06;20.70;1.00
1602;DHT22;794;48.592;9.634;2022-09-09T15:15:30;20.50;1.00
1602;DHT22;794;48.592;9.634;2022-09-09T15:25:20;20.30;1.00
1602;DHT22;794;48.592;9.634;2022-09-09T15:27:47;20.50;1.00
1602;DHT22;794;48.592;9.634;2022-09-09T15:30:14;20.40;1.00
1602;DHT22;794;48.592;9.634;2022-09-09T15:32:42;20.30;1.00
1602;DHT22;794;48.592;9.634;2022-09-09T15:40:04;20.30;1.00
1602;DHT22;794;48.592;9.634;2022-09-09T15:42:33;20.10;1.00
1602;DHT22;794;48.592;9.634;2022-09-09T15:45:00;20.10;1.00
1602;DHT22;794;48.592;9.634;2022-09-09T15:47:27;20.00;1.00
1602;DHT22;794;48.592;9.634;2022-09-09T15:49:54;19.80;1.00
1602;DHT22;794;48.592;9.634;2022-09-09T15:54:48;19.60;1.00
1602;DHT22;794;48.592;9.634;2022-09-09T15:57:31;19.40;1.00
1602;DHT22;794;48.592;9.634;2022-09-09T16:00:08;19.80;1.00
1602;DHT22;794;48.592;9.634;2022-09-09T16:02:39;19.30;1.00
1602;DHT22;794;48.592;9.634;2022-09-09T16:14:59;19.40;1.00
1602;DHT22;794;48.592;9.634;2022-09-09T16:17:28;19.20;1.00
1602;DHT22;794;48.592;9.634;2022-09-09T16:24:50;19.10;1.00
1602;DHT22;794;48.592;9.634;2022-09-09T16:27:19;19.10;1.00
1602;DHT22;794;48.592;9.634;2022-09-09T16:29:50;19.10;1.00
1602;DHT22;794;48.592;9.634;2022-09-09T16:34:50;19.10;1.00
1602;DHT22;794;48.592;9.634;2022-09-09T16:37:20;19.10;1.00
1602;DHT22;794;48.592;9.634;2022-09-09T16:44:43;18.90;1.00
1602;DHT22;794;48.592;9.634;2022-09-09T16:52:13;18.80;1.00
1602;DHT22;794;48.592;9.634;2022-09-09T16:57:10;18.70;1.00
1602;DHT22;794;48.592;9.634;2022-09-09T17:09:29;18.50;1.00
1602;DHT22;794;48.592;9.634;2022-09-09T17:11:58;18.50;1.00
1602;DHT22;794;48.592;9.634;2022-09-09T17:16:52;18.50;1.00
1602;DHT22;794;48.592;9.634;2022-09-09T17:21:54;18.30;1.00
1602;DHT22;794;48.592;9.634;2022-09-09T17:26:53;17.80;1.00
1602;DHT22;794;48.592;9.634;2022-09-09T17:36:48;17.30;1.00
1602;DHT22;794;48.592;9.634;2022-09-09T17:39:15;17.20;1.00
1602;DHT22;794;48.592;9.634;2022-09-09T17:41:42;17.10;1.00
1602;DHT22;794;48.592;9.634;2022-09-09T17:44:13;17.00;1.00
1602;DHT22;794;48.592;9.634;2022-09-09T17:46:41;16.80;1.00
1602;DHT22;794;48.592;9.634;2022-09-09T17:49:10;16.70;1.00
1602;DHT22;794;48.592;9.634;2022-09-09T17:54:10;16.30;1.00
1602;DHT22;794;48.592;9.634;2022-09-09T17:56:39;16.30;1.00
1602;DHT22;794;48.592;9.634;2022-09-09T17:59:08;16.10;1.00
1602;DHT22;794;48.592;9.634;2022-09-09T18:01:38;16.00;1.00
1602;DHT22;794;48.592;9.634;2022-09-09T18:04:07;16.00;1.00
1602;DHT22;794;48.592;9.634;2022-09-09T18:06:38;16.00;1.00
1602;DHT22;794;48.592;9.634;2022-09-09T18:09:06;15.90;1.00
1602;DHT22;794;48.592;9.634;2022-09-09T18:11:36;15.80;1.00
1602;DHT22;794;48.592;9.634;2022-09-09T18:14:07;15.80;1.00
1602;DHT22;794;48.592;9.634;2022-09-09T18:16:37;15.80;1.00
1602;DHT22;794;48.592;9.634;2022-09-09T18:19:06;15.70;1.00
1602;DHT22;794;48.592;9.634;2022-09-09T18:24:06;15.60;1.00
1602;DHT22;794;48.592;9.634;2022-09-09T18:26:34;15.50;1.00
1602;DHT22;794;48.592;9.634;2022-09-09T18:29:05;15.50;1.00
1602;DHT22;794;48.592;9.634;2022-09-09T18:31:38;15.40;1.00
1602;DHT22;794;48.592;9.634;2022-09-09T18:34:12;15.30;1.00
1602;DHT22;794;48.592;9.634;2022-09-09T18:36:41;15.30;1.00
1602;DHT22;794;48.592;9.634;2022-09-09T18:39:10;15.20;1.00
1602;DHT22;794;48.592;9.634;2022-09-09T18:41:39;15.20;1.00
1602;DHT22;794;48.592;9.634;2022-09-09T18:44:11;15.10;1.00
1602;DHT22;794;48.592;9.634;2022-09-09T18:46:48;15.10;1.00
1602;DHT22;794;48.592;9.634;2022-09-09T18:49:18;15.00;1.00
1602;DHT22;794;48.592;9.634;2022-09-09T18:54:23;14.80;1.00
1602;DHT22;794;48.592;9.634;2022-09-09T18:59:22;14.70;1.00
1602;DHT22;794;48.592;9.634;2022-09-09T19:01:56;14.70;1.00
1602;DHT22;794;48.592;9.634;2022-09-09T19:04:23;14.60;1.00
1602;DHT22;794;48.592;9.634;2022-09-09T19:09:25;14.60;1.00
1602;DHT22;794;48.592;9.634;2022-09-09T19:19:19;14.30;1.00
1602;DHT22;794;48.592;9.634;2022-09-09T19:24:30;14.20;1.00
1602;DHT22;794;48.592;9.634;2022-09-09T19:26:59;14.20;1.00
1602;DHT22;794;48.592;9.634;2022-09-09T19:29:29;14.10;1.00
1602;DHT22;794;48.592;9.634;2022-09-09T19:32:00;14.10;1.00
1602;DHT22;794;48.592;9.634;2022-09-09T19:34:29;14.00;1.00
1602;DHT22;794;48.592;9.634;2022-09-09T19:36:56;14.00;1.00
1602;DHT22;794;48.592;9.634;2022-09-09T19:46:50;13.80;1.00
1602;DHT22;794;48.592;9.634;2022-09-09T19:51:51;13.80;1.00
1602;DHT22;794;48.592;9.634;2022-09-09T20:01:54;13.90;1.00
1602;DHT22;794;48.592;9.634;2022-09-09T20:19:28;13.70;1.00
1602;DHT22;794;48.592;9.634;2022-09-09T20:22:00;13.80;1.00
1602;DHT22;794;48.592;9.634;2022-09-09T20:29:21;13.50;1.00
1602;DHT22;794;48.592;9.634;2022-09-09T20:34:19;13.30;1.00
1602;DHT22;794;48.592;9.634;2022-09-09T20:39:22;13.20;1.00
1602;DHT22;794;48.592;9.634;2022-09-09T20:44:19;13.10;1.00
1602;DHT22;794;48.592;9.634;2022-09-09T20:46:51;13.10;1.00
1602;DHT22;794;48.592;9.634;2022-09-09T20:49:22;13.10;1.00
1602;DHT22;794;48.592;9.634;2022-09-09T20:54:22;13.00;1.00
1602;DHT22;794;48.592;9.634;2022-09-09T20:56:49;13.10;1.00
1602;DHT22;794;48.592;9.634;2022-09-09T20:59:21;13.00;1.00
1602;DHT22;794;48.592;9.634;2022-09-09T21:04:18;12.80;1.00
1602;DHT22;794;48.592;9.634;2022-09-09T21:06:47;12.90;1.00
1602;DHT22;794;48.592;9.634;2022-09-09T21:12:01;13.30;1.00
1602;DHT22;794;48.592;9.634;2022-09-09T21:14:33;12.70;1.00
1602;DHT22;794;48.592;9.634;2022-09-09T21:24:30;12.70;1.00
1602;DHT22;794;48.592;9.634;2022-09-09T21:29:29;12.80;1.00
1602;DHT22;794;48.592;9.634;2022-09-09T21:46:46;12.60;1.00
1602;DHT22;794;48.592;9.634;2022-09-09T21:54:14;12.60;1.00
1602;DHT22;794;48.592;9.634;2022-09-09T21:59:12;12.50;1.00
1602;DHT22;794;48.592;9.634;2022-09-09T22:04:12;12.40;1.00
1602;DHT22;794;48.592;9.634;2022-09-09T22:21:31;12.50;1.00
1602;DHT22;794;48.592;9.634;2022-09-09T22:24:00;12.40;1.00
1602;DHT22;794;48.592;9.634;2022-09-09T22:26:30;12.30;1.00
1602;DHT22;794;48.592;9.634;2022-09-09T22:33:52;12.20;1.00
1602;DHT22;794;48.592;9.634;2022-09-09T22:36:20;12.20;1.00
1602;DHT22;794;48.592;9.634;2022-09-09T22:38:48;12.40;1.00
1602;DHT22;794;48.592;9.634;2022-09-09T22:41:23;12.10;1.00
1602;DHT22;794;48.592;9.634;2022-09-09T22:48:45;12.20;1.00
1602;DHT22;794;48.592;9.634;2022-09-09T22:51:25;11.90;1.00
1602;DHT22;794;48.592;9.634;2022-09-09T22:53:53;12.00;1.00
1602;DHT22;794;48.592;9.634;2022-09-09T22:58:54;12.10;1.00
1602;DHT22;794;48.592;9.634;2022-09-09T23:01:22;13.50;1.00
1602;DHT22;794;48.592;9.634;2022-09-09T23:03:52;12.40;1.00
1602;DHT22;794;48.592;9.634;2022-09-09T23:06:24;12.00;1.00
1602;DHT22;794;48.592;9.634;2022-09-09T23:08:54;12.20;1.00
1602;DHT22;794;48.592;9.634;2022-09-09T23:11:22;12.50;1.00
1602;DHT22;794;48.592;9.634;2022-09-09T23:13:52;12.40;1.00